Southill, Virginia
Current Conditions -  °F | °C
As of 2:16 AM on Saturday 27 Dec 2014 (Local Time) from KAVC Reporting Station
Clear Clear  
Wind Chill: 28°   Ceiling: Unl
Heat Index: 33°   Visibility: 10mi
Dew Point: 32°   Wind: 5mph
Humidity: 98%   Direction: 180°S
Pressure: 30.33"   Gusts: NA
Location:  36.743°N, 78.1806°W
Report Text: KAVC 270716Z AUTO 18004KT 10SM CLR 00/00 A3033 RMK AO2 T00030000
Loading
Personal Weather Stations






























Interactive Weather Map New forecast layout! Learn more

10-Day Weather Forecast

Advertisements
Track Severe Weather on mobile